sensor_id;sensor_type;location;lat;lon;timestamp;P1;durP1;ratioP1;P2;durP2;ratioP2
6031;SDS011;3044;43.232;27.972;2023-04-02T00:00:09;1.20;;;1.10;;
6031;SDS011;3044;43.232;27.972;2023-04-02T00:02:57;1.00;;;0.90;;
6031;SDS011;3044;43.232;27.972;2023-04-02T00:05:29;1.20;;;1.10;;
6031;SDS011;3044;43.232;27.972;2023-04-02T00:08:26;1.50;;;1.10;;
6031;SDS011;3044;43.232;27.972;2023-04-02T00:11:03;1.30;;;1.10;;
6031;SDS011;3044;43.232;27.972;2023-04-02T00:13:32;3.60;;;2.03;;
6031;SDS011;3044;43.232;27.972;2023-04-02T00:16:02;1.67;;;1.47;;
6031;SDS011;3044;43.232;27.972;2023-04-02T00:18:32;1.23;;;1.13;;
6031;SDS011;3044;43.232;27.972;2023-04-02T00:21:06;1.43;;;1.33;;
6031;SDS011;3044;43.232;27.972;2023-04-02T00:23:39;1.20;;;1.10;;
6031;SDS011;3044;43.232;27.972;2023-04-02T00:26:19;1.47;;;1.37;;
6031;SDS011;3044;43.232;27.972;2023-04-02T00:28:48;1.10;;;1.00;;
6031;SDS011;3044;43.232;27.972;2023-04-02T00:31:16;1.60;;;1.50;;
6031;SDS011;3044;43.232;27.972;2023-04-02T00:33:46;1.40;;;1.30;;
6031;SDS011;3044;43.232;27.972;2023-04-02T00:36:14;1.60;;;1.50;;
6031;SDS011;3044;43.232;27.972;2023-04-02T00:38:44;1.40;;;1.30;;
6031;SDS011;3044;43.232;27.972;2023-04-02T00:41:13;1.50;;;1.40;;
6031;SDS011;3044;43.232;27.972;2023-04-02T00:43:43;2.13;;;1.30;;
6031;SDS011;3044;43.232;27.972;2023-04-02T00:46:15;1.50;;;1.40;;
6031;SDS011;3044;43.232;27.972;2023-04-02T00:48:51;1.40;;;1.30;;
6031;SDS011;3044;43.232;27.972;2023-04-02T00:51:23;1.50;;;1.40;;
6031;SDS011;3044;43.232;27.972;2023-04-02T00:53:55;1.23;;;1.13;;
6031;SDS011;3044;43.232;27.972;2023-04-02T00:56:26;1.43;;;1.33;;
6031;SDS011;3044;43.232;27.972;2023-04-02T00:58:57;1.27;;;1.17;;
6031;SDS011;3044;43.232;27.972;2023-04-02T01:01:25;1.50;;;1.40;;
6031;SDS011;3044;43.232;27.972;2023-04-02T01:04:00;1.10;;;1.00;;
6031;SDS011;3044;43.232;27.972;2023-04-02T01:06:28;2.27;;;1.27;;
6031;SDS011;3044;43.232;27.972;2023-04-02T01:09:10;1.37;;;1.27;;
6031;SDS011;3044;43.232;27.972;2023-04-02T01:14:47;1.37;;;1.27;;
6031;SDS011;3044;43.232;27.972;2023-04-02T01:17:27;2.37;;;1.40;;
6031;SDS011;3044;43.232;27.972;2023-04-02T01:23:12;1.30;;;1.20;;
6031;SDS011;3044;43.232;27.972;2023-04-02T01:25:44;1.50;;;1.00;;
6031;SDS011;3044;43.232;27.972;2023-04-02T01:28:19;1.40;;;1.30;;
6031;SDS011;3044;43.232;27.972;2023-04-02T01:30:53;1.47;;;1.37;;
6031;SDS011;3044;43.232;27.972;2023-04-02T01:33:23;1.60;;;1.50;;
6031;SDS011;3044;43.232;27.972;2023-04-02T01:35:54;1.63;;;1.53;;
6031;SDS011;3044;43.232;27.972;2023-04-02T01:38:27;1.80;;;1.70;;
6031;SDS011;3044;43.232;27.972;2023-04-02T01:41:02;1.80;;;1.70;;
6031;SDS011;3044;43.232;27.972;2023-04-02T01:43:35;4.80;;;2.00;;
6031;SDS011;3044;43.232;27.972;2023-04-02T01:48:52;1.83;;;1.73;;
6031;SDS011;3044;43.232;27.972;2023-04-02T01:51:24;4.80;;;3.40;;
6031;SDS011;3044;43.232;27.972;2023-04-02T01:53:53;4.50;;;4.00;;
6031;SDS011;3044;43.232;27.972;2023-04-02T01:56:21;5.90;;;4.60;;
6031;SDS011;3044;43.232;27.972;2023-04-02T01:58:49;3.87;;;3.57;;
6031;SDS011;3044;43.232;27.972;2023-04-02T02:01:16;5.97;;;4.37;;
6031;SDS011;3044;43.232;27.972;2023-04-02T02:03:48;7.00;;;4.57;;
6031;SDS011;3044;43.232;27.972;2023-04-02T02:06:16;4.00;;;3.67;;
6031;SDS011;3044;43.232;27.972;2023-04-02T02:08:45;3.63;;;3.30;;
6031;SDS011;3044;43.232;27.972;2023-04-02T02:11:15;3.90;;;3.60;;
6031;SDS011;3044;43.232;27.972;2023-04-02T02:13:45;3.83;;;3.53;;
6031;SDS011;3044;43.232;27.972;2023-04-02T02:16:15;4.47;;;4.07;;
6031;SDS011;3044;43.232;27.972;2023-04-02T02:18:44;3.47;;;3.17;;
6031;SDS011;3044;43.232;27.972;2023-04-02T02:21:17;3.80;;;3.50;;
6031;SDS011;3044;43.232;27.972;2023-04-02T02:23:53;3.50;;;2.83;;
6031;SDS011;3044;43.232;27.972;2023-04-02T02:26:22;3.27;;;3.03;;
6031;SDS011;3044;43.232;27.972;2023-04-02T02:28:51;3.50;;;3.30;;
6031;SDS011;3044;43.232;27.972;2023-04-02T02:31:22;9.50;;;4.43;;
6031;SDS011;3044;43.232;27.972;2023-04-02T02:33:56;2.87;;;2.67;;
6031;SDS011;3044;43.232;27.972;2023-04-02T02:36:31;5.30;;;4.80;;
6031;SDS011;3044;43.232;27.972;2023-04-02T02:39:06;3.80;;;3.40;;
6031;SDS011;3044;43.232;27.972;2023-04-02T02:41:41;3.87;;;3.57;;
6031;SDS011;3044;43.232;27.972;2023-04-02T02:44:12;4.13;;;3.83;;
6031;SDS011;3044;43.232;27.972;2023-04-02T02:46:43;3.77;;;3.47;;
6031;SDS011;3044;43.232;27.972;2023-04-02T02:49:14;5.33;;;3.27;;
6031;SDS011;3044;43.232;27.972;2023-04-02T02:51:46;5.77;;;5.17;;
6031;SDS011;3044;43.232;27.972;2023-04-02T02:54:16;4.13;;;3.73;;
6031;SDS011;3044;43.232;27.972;2023-04-02T02:56:45;6.20;;;4.70;;
6031;SDS011;3044;43.232;27.972;2023-04-02T02:59:16;7.53;;;5.10;;
6031;SDS011;3044;43.232;27.972;2023-04-02T03:01:45;9.03;;;4.70;;
6031;SDS011;3044;43.232;27.972;2023-04-02T03:04:13;6.60;;;5.60;;
6031;SDS011;3044;43.232;27.972;2023-04-02T03:06:48;6.93;;;6.23;;
6031;SDS011;3044;43.232;27.972;2023-04-02T03:09:18;7.87;;;5.80;;
6031;SDS011;3044;43.232;27.972;2023-04-02T03:11:56;5.90;;;5.40;;
6031;SDS011;3044;43.232;27.972;2023-04-02T03:14:29;6.40;;;5.57;;
6031;SDS011;3044;43.232;27.972;2023-04-02T03:17:01;5.10;;;4.57;;
6031;SDS011;3044;43.232;27.972;2023-04-02T03:19:34;4.83;;;4.43;;
6031;SDS011;3044;43.232;27.972;2023-04-02T03:22:10;4.73;;;4.33;;
6031;SDS011;3044;43.232;27.972;2023-04-02T03:24:44;5.30;;;4.30;;
6031;SDS011;3044;43.232;27.972;2023-04-02T03:27:18;4.53;;;4.23;;
6031;SDS011;3044;43.232;27.972;2023-04-02T03:29:53;4.30;;;4.00;;
6031;SDS011;3044;43.232;27.972;2023-04-02T03:32:41;5.00;;;3.70;;
6031;SDS011;3044;43.232;27.972;2023-04-02T03:35:16;3.33;;;3.13;;
6031;SDS011;3044;43.232;27.972;2023-04-02T03:37:49;3.70;;;3.40;;
6031;SDS011;3044;43.232;27.972;2023-04-02T03:40:22;3.87;;;3.57;;
6031;SDS011;3044;43.232;27.972;2023-04-02T03:42:57;5.27;;;4.60;;
6031;SDS011;3044;43.232;27.972;2023-04-02T03:45:30;3.60;;;3.30;;
6031;SDS011;3044;43.232;27.972;2023-04-02T03:48:02;4.33;;;4.03;;
6031;SDS011;3044;43.232;27.972;2023-04-02T03:50:34;3.67;;;3.47;;
6031;SDS011;3044;43.232;27.972;2023-04-02T03:53:11;5.73;;;3.90;;
6031;SDS011;3044;43.232;27.972;2023-04-02T03:55:39;7.43;;;4.00;;
6031;SDS011;3044;43.232;27.972;2023-04-02T03:58:08;5.40;;;4.90;;
6031;SDS011;3044;43.232;27.972;2023-04-02T04:00:42;4.97;;;4.57;;
6031;SDS011;3044;43.232;27.972;2023-04-02T04:03:14;6.53;;;5.10;;
6031;SDS011;3044;43.232;27.972;2023-04-02T04:05:45;8.40;;;5.43;;
6031;SDS011;3044;43.232;27.972;2023-04-02T04:08:18;7.10;;;5.23;;
6031;SDS011;3044;43.232;27.972;2023-04-02T04:10:50;6.83;;;4.40;;
6031;SDS011;3044;43.232;27.972;2023-04-02T04:13:21;6.50;;;5.90;;
6031;SDS011;3044;43.232;27.972;2023-04-02T04:15:56;5.23;;;4.83;;
6031;SDS011;3044;43.232;27.972;2023-04-02T04:18:28;6.17;;;5.57;;
6031;SDS011;3044;43.232;27.972;2023-04-02T04:21:02;8.70;;;7.80;;
6031;SDS011;3044;43.232;27.972;2023-04-02T04:23:39;7.17;;;5.10;;
6031;SDS011;3044;43.232;27.972;2023-04-02T04:26:16;5.40;;;4.30;;
6031;SDS011;3044;43.232;27.972;2023-04-02T04:28:51;5.00;;;4.47;;
6031;SDS011;3044;43.232;27.972;2023-04-02T04:31:31;3.80;;;3.50;;
6031;SDS011;3044;43.232;27.972;2023-04-02T04:34:04;4.83;;;3.57;;
6031;SDS011;3044;43.232;27.972;2023-04-02T04:36:39;6.50;;;4.50;;
6031;SDS011;3044;43.232;27.972;2023-04-02T04:39:22;6.13;;;5.53;;
6031;SDS011;3044;43.232;27.972;2023-04-02T04:41:56;6.00;;;5.40;;
6031;SDS011;3044;43.232;27.972;2023-04-02T04:44:29;9.50;;;5.43;;
6031;SDS011;3044;43.232;27.972;2023-04-02T04:47:06;9.70;;;5.90;;
6031;SDS011;3044;43.232;27.972;2023-04-02T04:49:37;7.17;;;5.93;;
6031;SDS011;3044;43.232;27.972;2023-04-02T04:52:10;9.53;;;7.27;;
6031;SDS011;3044;43.232;27.972;2023-04-02T04:54:44;9.83;;;7.20;;
6031;SDS011;3044;43.232;27.972;2023-04-02T04:57:17;31.07;;;8.33;;
6031;SDS011;3044;43.232;27.972;2023-04-02T04:59:54;11.20;;;8.47;;
6031;SDS011;3044;43.232;27.972;2023-04-02T05:02:25;7.60;;;6.87;;
6031;SDS011;3044;43.232;27.972;2023-04-02T05:04:55;7.87;;;6.23;;
6031;SDS011;3044;43.232;27.972;2023-04-02T05:07:24;6.60;;;6.00;;
6031;SDS011;3044;43.232;27.972;2023-04-02T05:09:56;7.90;;;7.10;;
6031;SDS011;3044;43.232;27.972;2023-04-02T05:12:31;7.37;;;6.60;;
6031;SDS011;3044;43.232;27.972;2023-04-02T05:15:03;13.67;;;7.60;;
6031;SDS011;3044;43.232;27.972;2023-04-02T05:17:38;7.20;;;5.70;;
6031;SDS011;3044;43.232;27.972;2023-04-02T05:20:13;6.43;;;5.80;;
6031;SDS011;3044;43.232;27.972;2023-04-02T05:22:47;5.70;;;4.40;;
6031;SDS011;3044;43.232;27.972;2023-04-02T05:25:21;6.63;;;4.80;;
6031;SDS011;3044;43.232;27.972;2023-04-02T05:27:51;8.57;;;4.67;;
6031;SDS011;3044;43.232;27.972;2023-04-02T05:30:36;3.83;;;3.53;;
6031;SDS011;3044;43.232;27.972;2023-04-02T05:33:16;8.07;;;5.93;;
6031;SDS011;3044;43.232;27.972;2023-04-02T05:35:50;6.60;;;4.40;;
6031;SDS011;3044;43.232;27.972;2023-04-02T05:38:22;9.40;;;5.17;;
6031;SDS011;3044;43.232;27.972;2023-04-02T05:40:58;2.60;;;2.50;;
6031;SDS011;3044;43.232;27.972;2023-04-02T05:43:29;3.60;;;3.30;;
6031;SDS011;3044;43.232;27.972;2023-04-02T05:46:00;4.77;;;3.33;;
6031;SDS011;3044;43.232;27.972;2023-04-02T05:48:34;5.40;;;3.77;;
6031;SDS011;3044;43.232;27.972;2023-04-02T05:51:06;5.73;;;3.07;;
6031;SDS011;3044;43.232;27.972;2023-04-02T05:53:39;4.13;;;3.30;;
6031;SDS011;3044;43.232;27.972;2023-04-02T05:56:14;3.07;;;2.87;;
6031;SDS011;3044;43.232;27.972;2023-04-02T05:58:45;4.10;;;3.70;;
6031;SDS011;3044;43.232;27.972;2023-04-02T06:04:05;3.43;;;3.17;;
6031;SDS011;3044;43.232;27.972;2023-04-02T06:06:45;2.70;;;2.50;;
6031;SDS011;3044;43.232;27.972;2023-04-02T06:09:18;5.67;;;3.10;;
6031;SDS011;3044;43.232;27.972;2023-04-02T06:11:53;3.67;;;2.90;;
6031;SDS011;3044;43.232;27.972;2023-04-02T06:14:25;3.00;;;2.10;;
6031;SDS011;3044;43.232;27.972;2023-04-02T06:16:52;2.33;;;2.13;;
6031;SDS011;3044;43.232;27.972;2023-04-02T06:19:21;5.00;;;2.40;;
6031;SDS011;3044;43.232;27.972;2023-04-02T06:21:56;2.20;;;1.93;;
6031;SDS011;3044;43.232;27.972;2023-04-02T06:24:26;3.10;;;2.57;;
6031;SDS011;3044;43.232;27.972;2023-04-02T06:26:56;4.13;;;2.30;;
6031;SDS011;3044;43.232;27.972;2023-04-02T06:29:30;2.70;;;2.50;;
6031;SDS011;3044;43.232;27.972;2023-04-02T06:32:03;3.43;;;2.83;;
6031;SDS011;3044;43.232;27.972;2023-04-02T06:34:33;2.97;;;2.63;;
6031;SDS011;3044;43.232;27.972;2023-04-02T06:37:04;4.20;;;2.83;;
6031;SDS011;3044;43.232;27.972;2023-04-02T06:39:41;2.00;;;1.80;;
6031;SDS011;3044;43.232;27.972;2023-04-02T06:42:10;3.80;;;1.77;;
6031;SDS011;3044;43.232;27.972;2023-04-02T06:44:39;5.60;;;2.90;;
6031;SDS011;3044;43.232;27.972;2023-04-02T06:47:10;3.13;;;2.13;;
6031;SDS011;3044;43.232;27.972;2023-04-02T06:49:49;5.73;;;3.07;;
6031;SDS011;3044;43.232;27.972;2023-04-02T06:52:23;2.33;;;2.00;;
6031;SDS011;3044;43.232;27.972;2023-04-02T06:54:54;3.40;;;2.40;;
6031;SDS011;3044;43.232;27.972;2023-04-02T06:57:22;4.07;;;1.90;;
6031;SDS011;3044;43.232;27.972;2023-04-02T06:59:50;2.57;;;2.37;;
6031;SDS011;3044;43.232;27.972;2023-04-02T07:02:23;3.23;;;1.80;;
6031;SDS011;3044;43.232;27.972;2023-04-02T07:04:57;5.53;;;1.53;;
6031;SDS011;3044;43.232;27.972;2023-04-02T07:07:28;1.90;;;1.77;;
6031;SDS011;3044;43.232;27.972;2023-04-02T07:09:55;2.00;;;1.83;;
6031;SDS011;3044;43.232;27.972;2023-04-02T07:12:24;2.17;;;1.90;;
6031;SDS011;3044;43.232;27.972;2023-04-02T07:14:52;1.77;;;1.63;;
6031;SDS011;3044;43.232;27.972;2023-04-02T07:17:19;3.10;;;1.47;;
6031;SDS011;3044;43.232;27.972;2023-04-02T07:19:47;4.33;;;1.40;;
6031;SDS011;3044;43.232;27.972;2023-04-02T07:22:14;4.27;;;1.67;;
6031;SDS011;3044;43.232;27.972;2023-04-02T07:24:42;1.67;;;1.50;;
6031;SDS011;3044;43.232;27.972;2023-04-02T07:27:10;1.60;;;1.50;;
6031;SDS011;3044;43.232;27.972;2023-04-02T07:29:39;1.70;;;1.50;;
6031;SDS011;3044;43.232;27.972;2023-04-02T07:32:08;1.83;;;1.63;;
6031;SDS011;3044;43.232;27.972;2023-04-02T07:34:36;3.20;;;1.70;;
6031;SDS011;3044;43.232;27.972;2023-04-02T07:37:03;1.70;;;1.60;;
6031;SDS011;3044;43.232;27.972;2023-04-02T07:39:31;1.73;;;1.63;;
6031;SDS011;3044;43.232;27.972;2023-04-02T07:41:59;1.53;;;1.43;;
6031;SDS011;3044;43.232;27.972;2023-04-02T07:44:27;1.63;;;1.53;;
6031;SDS011;3044;43.232;27.972;2023-04-02T07:46:56;2.30;;;1.60;;
6031;SDS011;3044;43.232;27.972;2023-04-02T07:49:23;1.87;;;1.40;;
6031;SDS011;3044;43.232;27.972;2023-04-02T07:51:51;1.90;;;1.80;;
6031;SDS011;3044;43.232;27.972;2023-04-02T07:54:18;2.10;;;2.00;;
6031;SDS011;3044;43.232;27.972;2023-04-02T07:56:45;2.73;;;1.80;;
6031;SDS011;3044;43.232;27.972;2023-04-02T07:59:12;2.57;;;2.27;;
6031;SDS011;3044;43.232;27.972;2023-04-02T08:01:40;2.50;;;2.20;;
6031;SDS011;3044;43.232;27.972;2023-04-02T08:04:14;6.60;;;3.07;;
6031;SDS011;3044;43.232;27.972;2023-04-02T08:06:43;6.00;;;2.40;;
6031;SDS011;3044;43.232;27.972;2023-04-02T08:09:11;2.97;;;2.50;;
6031;SDS011;3044;43.232;27.972;2023-04-02T08:11:38;3.83;;;2.23;;
6031;SDS011;3044;43.232;27.972;2023-04-02T08:14:06;5.03;;;2.50;;
6031;SDS011;3044;43.232;27.972;2023-04-02T08:16:43;4.90;;;2.20;;
6031;SDS011;3044;43.232;27.972;2023-04-02T08:19:16;2.33;;;1.70;;
6031;SDS011;3044;43.232;27.972;2023-04-02T08:21:44;8.60;;;2.53;;
6031;SDS011;3044;43.232;27.972;2023-04-02T08:24:14;2.40;;;2.20;;
6031;SDS011;3044;43.232;27.972;2023-04-02T08:26:43;6.00;;;2.70;;
6031;SDS011;3044;43.232;27.972;2023-04-02T08:29:10;2.70;;;2.50;;
6031;SDS011;3044;43.232;27.972;2023-04-02T08:31:37;3.57;;;2.13;;
6031;SDS011;3044;43.232;27.972;2023-04-02T08:34:04;4.00;;;2.10;;
6031;SDS011;3044;43.232;27.972;2023-04-02T08:36:33;2.90;;;2.70;;
6031;SDS011;3044;43.232;27.972;2023-04-02T08:39:02;4.33;;;2.83;;
6031;SDS011;3044;43.232;27.972;2023-04-02T08:41:34;2.07;;;1.90;;
6031;SDS011;3044;43.232;27.972;2023-04-02T08:44:08;5.80;;;1.77;;
6031;SDS011;3044;43.232;27.972;2023-04-02T08:46:46;2.53;;;1.80;;
6031;SDS011;3044;43.232;27.972;2023-04-02T08:49:18;1.80;;;1.70;;
6031;SDS011;3044;43.232;27.972;2023-04-02T08:51:52;1.67;;;1.57;;
6031;SDS011;3044;43.232;27.972;2023-04-02T08:54:20;1.80;;;1.70;;
6031;SDS011;3044;43.232;27.972;2023-04-02T08:56:51;4.03;;;2.00;;
6031;SDS011;3044;43.232;27.972;2023-04-02T08:59:26;2.27;;;1.83;;
6031;SDS011;3044;43.232;27.972;2023-04-02T09:01:59;2.70;;;1.77;;
6031;SDS011;3044;43.232;27.972;2023-04-02T09:04:39;4.30;;;2.10;;
6031;SDS011;3044;43.232;27.972;2023-04-02T09:07:09;5.57;;;2.27;;
6031;SDS011;3044;43.232;27.972;2023-04-02T09:09:38;2.03;;;1.93;;
6031;SDS011;3044;43.232;27.972;2023-04-02T09:12:06;7.30;;;1.80;;
6031;SDS011;3044;43.232;27.972;2023-04-02T09:14:42;3.10;;;1.50;;
6031;SDS011;3044;43.232;27.972;2023-04-02T09:17:13;1.50;;;1.40;;
6031;SDS011;3044;43.232;27.972;2023-04-02T09:19:44;2.63;;;1.90;;
6031;SDS011;3044;43.232;27.972;2023-04-02T09:22:20;2.10;;;1.33;;
6031;SDS011;3044;43.232;27.972;2023-04-02T09:24:50;1.67;;;1.57;;
6031;SDS011;3044;43.232;27.972;2023-04-02T09:27:18;4.20;;;2.10;;
6031;SDS011;3044;43.232;27.972;2023-04-02T09:29:46;2.20;;;2.00;;
6031;SDS011;3044;43.232;27.972;2023-04-02T09:32:25;3.07;;;1.70;;
6031;SDS011;3044;43.232;27.972;2023-04-02T09:35:06;2.27;;;1.57;;
6031;SDS011;3044;43.232;27.972;2023-04-02T09:37:38;3.00;;;1.73;;
6031;SDS011;3044;43.232;27.972;2023-04-02T09:40:25;2.20;;;2.00;;
6031;SDS011;3044;43.232;27.972;2023-04-02T09:43:07;1.77;;;1.53;;
6031;SDS011;3044;43.232;27.972;2023-04-02T09:45:43;4.17;;;2.03;;
6031;SDS011;3044;43.232;27.972;2023-04-02T09:48:23;3.20;;;2.50;;
6031;SDS011;3044;43.232;27.972;2023-04-02T09:51:10;1.97;;;1.87;;
6031;SDS011;3044;43.232;27.972;2023-04-02T09:53:42;2.90;;;1.60;;
6031;SDS011;3044;43.232;27.972;2023-04-02T09:56:11;2.40;;;2.20;;
6031;SDS011;3044;43.232;27.972;2023-04-02T09:58:41;2.37;;;2.17;;
6031;SDS011;3044;43.232;27.972;2023-04-02T10:01:26;3.43;;;2.03;;
6031;SDS011;3044;43.232;27.972;2023-04-02T10:03:56;2.07;;;1.90;;
6031;SDS011;3044;43.232;27.972;2023-04-02T10:06:24;7.80;;;2.20;;
6031;SDS011;3044;43.232;27.972;2023-04-02T10:08:54;1.80;;;1.53;;
6031;SDS011;3044;43.232;27.972;2023-04-02T10:11:22;1.93;;;1.83;;
6031;SDS011;3044;43.232;27.972;2023-04-02T10:13:55;2.90;;;1.80;;
6031;SDS011;3044;43.232;27.972;2023-04-02T10:16:25;1.90;;;1.70;;
6031;SDS011;3044;43.232;27.972;2023-04-02T10:18:58;4.13;;;2.00;;
6031;SDS011;3044;43.232;27.972;2023-04-02T10:21:30;2.20;;;2.00;;
6031;SDS011;3044;43.232;27.972;2023-04-02T10:24:04;4.53;;;2.20;;
6031;SDS011;3044;43.232;27.972;2023-04-02T10:26:43;1.77;;;1.50;;
6031;SDS011;3044;43.232;27.972;2023-04-02T10:32:14;4.70;;;2.03;;
6031;SDS011;3044;43.232;27.972;2023-04-02T10:34:47;2.20;;;1.87;;
6031;SDS011;3044;43.232;27.972;2023-04-02T10:37:46;2.73;;;2.07;;
6031;SDS011;3044;43.232;27.972;2023-04-02T10:40:23;1.93;;;1.83;;
6031;SDS011;3044;43.232;27.972;2023-04-02T10:42:58;1.90;;;1.80;;
6031;SDS011;3044;43.232;27.972;2023-04-02T10:45:38;2.10;;;2.00;;
6031;SDS011;3044;43.232;27.972;2023-04-02T10:48:13;2.90;;;2.40;;
6031;SDS011;3044;43.232;27.972;2023-04-02T10:50:50;2.20;;;2.00;;
6031;SDS011;3044;43.232;27.972;2023-04-02T10:53:25;1.90;;;1.80;;
6031;SDS011;3044;43.232;27.972;2023-04-02T10:56:01;3.93;;;1.67;;
6031;SDS011;3044;43.232;27.972;2023-04-02T10:58:33;1.73;;;1.60;;
6031;SDS011;3044;43.232;27.972;2023-04-02T11:01:06;4.67;;;2.50;;
6031;SDS011;3044;43.232;27.972;2023-04-02T11:03:39;1.80;;;1.70;;
6031;SDS011;3044;43.232;27.972;2023-04-02T11:06:14;3.00;;;1.80;;
6031;SDS011;3044;43.232;27.972;2023-04-02T11:08:45;1.90;;;1.80;;
6031;SDS011;3044;43.232;27.972;2023-04-02T11:11:16;1.60;;;1.50;;
6031;SDS011;3044;43.232;27.972;2023-04-02T11:13:49;1.73;;;1.60;;
6031;SDS011;3044;43.232;27.972;2023-04-02T11:16:21;3.33;;;1.70;;
6031;SDS011;3044;43.232;27.972;2023-04-02T11:19:08;1.87;;;1.40;;
6031;SDS011;3044;43.232;27.972;2023-04-02T11:21:51;2.17;;;2.07;;
6031;SDS011;3044;43.232;27.972;2023-04-02T11:24:24;2.67;;;2.37;;
6031;SDS011;3044;43.232;27.972;2023-04-02T11:27:14;2.07;;;1.70;;
6031;SDS011;3044;43.232;27.972;2023-04-02T11:29:46;4.53;;;1.53;;
6031;SDS011;3044;43.232;27.972;2023-04-02T11:32:26;1.40;;;1.30;;
6031;SDS011;3044;43.232;27.972;2023-04-02T11:37:57;1.40;;;1.30;;
6031;SDS011;3044;43.232;27.972;2023-04-02T11:46:33;1.40;;;1.30;;
6031;SDS011;3044;43.232;27.972;2023-04-02T11:52:22;3.67;;;1.30;;
6031;SDS011;3044;43.232;27.972;2023-04-02T11:54:56;1.90;;;1.30;;
6031;SDS011;3044;43.232;27.972;2023-04-02T11:57:29;1.67;;;1.03;;
6031;SDS011;3044;43.232;27.972;2023-04-02T12:00:13;1.70;;;1.27;;
6031;SDS011;3044;43.232;27.972;2023-04-02T12:02:52;1.20;;;1.10;;
6031;SDS011;3044;43.232;27.972;2023-04-02T12:05:31;1.30;;;1.07;;
6031;SDS011;3044;43.232;27.972;2023-04-02T12:08:10;1.80;;;1.40;;
6031;SDS011;3044;43.232;27.972;2023-04-02T12:10:50;1.20;;;1.00;;
6031;SDS011;3044;43.232;27.972;2023-04-02T12:13:25;1.10;;;0.97;;
6031;SDS011;3044;43.232;27.972;2023-04-02T12:16:17;2.40;;;1.03;;
6031;SDS011;3044;43.232;27.972;2023-04-02T12:18:45;7.80;;;1.17;;
6031;SDS011;3044;43.232;27.972;2023-04-02T12:21:18;1.20;;;0.80;;
6031;SDS011;3044;43.232;27.972;2023-04-02T12:23:47;2.40;;;1.10;;
6031;SDS011;3044;43.232;27.972;2023-04-02T12:26:23;1.73;;;1.00;;
6031;SDS011;3044;43.232;27.972;2023-04-02T12:31:52;0.90;;;0.80;;
6031;SDS011;3044;43.232;27.972;2023-04-02T12:34:21;1.17;;;1.00;;
6031;SDS011;3044;43.232;27.972;2023-04-02T12:36:50;1.00;;;0.80;;
6031;SDS011;3044;43.232;27.972;2023-04-02T12:39:18;1.33;;;1.10;;
6031;SDS011;3044;43.232;27.972;2023-04-02T12:41:46;2.27;;;1.10;;
6031;SDS011;3044;43.232;27.972;2023-04-02T12:44:14;3.60;;;0.90;;
6031;SDS011;3044;43.232;27.972;2023-04-02T12:46:43;1.30;;;1.20;;
6031;SDS011;3044;43.232;27.972;2023-04-02T12:49:17;1.20;;;1.10;;
6031;SDS011;3044;43.232;27.972;2023-04-02T12:51:48;4.30;;;1.00;;
6031;SDS011;3044;43.232;27.972;2023-04-02T12:54:17;1.20;;;1.10;;
6031;SDS011;3044;43.232;27.972;2023-04-02T12:56:45;1.53;;;1.40;;
6031;SDS011;3044;43.232;27.972;2023-04-02T12:59:26;2.80;;;1.53;;
6031;SDS011;3044;43.232;27.972;2023-04-02T13:01:58;1.93;;;1.60;;
6031;SDS011;3044;43.232;27.972;2023-04-02T13:04:28;2.93;;;1.77;;
6031;SDS011;3044;43.232;27.972;2023-04-02T13:06:55;1.40;;;1.20;;
6031;SDS011;3044;43.232;27.972;2023-04-02T13:09:27;1.10;;;1.00;;
6031;SDS011;3044;43.232;27.972;2023-04-02T13:11:56;2.30;;;2.03;;
6031;SDS011;3044;43.232;27.972;2023-04-02T13:14:24;3.70;;;1.83;;
6031;SDS011;3044;43.232;27.972;2023-04-02T13:16:53;2.43;;;2.33;;
6031;SDS011;3044;43.232;27.972;2023-04-02T13:19:29;2.10;;;1.87;;
6031;SDS011;3044;43.232;27.972;2023-04-02T13:21:58;1.77;;;1.67;;
6031;SDS011;3044;43.232;27.972;2023-04-02T13:24:26;1.90;;;1.40;;
6031;SDS011;3044;43.232;27.972;2023-04-02T13:26:55;1.37;;;1.27;;
6031;SDS011;3044;43.232;27.972;2023-04-02T13:29:24;4.27;;;1.70;;
6031;SDS011;3044;43.232;27.972;2023-04-02T13:31:55;1.60;;;1.50;;
6031;SDS011;3044;43.232;27.972;2023-04-02T13:34:24;2.30;;;1.20;;
6031;SDS011;3044;43.232;27.972;2023-04-02T13:36:53;1.37;;;1.10;;
6031;SDS011;3044;43.232;27.972;2023-04-02T13:39:21;2.37;;;1.30;;
6031;SDS011;3044;43.232;27.972;2023-04-02T13:41:50;5.17;;;1.33;;
6031;SDS011;3044;43.232;27.972;2023-04-02T13:44:22;1.10;;;1.00;;
6031;SDS011;3044;43.232;27.972;2023-04-02T13:46:51;1.30;;;1.20;;
6031;SDS011;3044;43.232;27.972;2023-04-02T13:49:20;2.40;;;1.10;;
6031;SDS011;3044;43.232;27.972;2023-04-02T13:51:48;1.17;;;1.07;;
6031;SDS011;3044;43.232;27.972;2023-04-02T13:54:19;1.17;;;1.03;;
6031;SDS011;3044;43.232;27.972;2023-04-02T13:56:50;1.70;;;1.40;;
6031;SDS011;3044;43.232;27.972;2023-04-02T13:59:17;3.97;;;1.50;;
6031;SDS011;3044;43.232;27.972;2023-04-02T14:01:45;1.17;;;1.07;;
6031;SDS011;3044;43.232;27.972;2023-04-02T14:04:15;2.50;;;1.50;;
6031;SDS011;3044;43.232;27.972;2023-04-02T14:07:01;3.63;;;1.30;;
6031;SDS011;3044;43.232;27.972;2023-04-02T14:09:45;1.20;;;1.10;;
6031;SDS011;3044;43.232;27.972;2023-04-02T14:12:26;2.90;;;1.20;;
6031;SDS011;3044;43.232;27.972;2023-04-02T14:15:07;2.20;;;1.27;;
6031;SDS011;3044;43.232;27.972;2023-04-02T14:17:47;1.47;;;1.10;;
6031;SDS011;3044;43.232;27.972;2023-04-02T14:20:29;1.50;;;1.40;;
6031;SDS011;3044;43.232;27.972;2023-04-02T14:23:08;1.70;;;1.50;;
6031;SDS011;3044;43.232;27.972;2023-04-02T14:25:52;1.40;;;1.17;;
6031;SDS011;3044;43.232;27.972;2023-04-02T14:28:24;9.10;;;1.10;;
6031;SDS011;3044;43.232;27.972;2023-04-02T14:31:04;1.73;;;1.00;;
6031;SDS011;3044;43.232;27.972;2023-04-02T14:33:39;1.70;;;1.60;;
6031;SDS011;3044;43.232;27.972;2023-04-02T14:36:14;2.37;;;1.10;;
6031;SDS011;3044;43.232;27.972;2023-04-02T14:38:49;1.20;;;1.10;;
6031;SDS011;3044;43.232;27.972;2023-04-02T14:41:23;1.07;;;0.97;;
6031;SDS011;3044;43.232;27.972;2023-04-02T14:43:58;1.77;;;1.17;;
6031;SDS011;3044;43.232;27.972;2023-04-02T14:46:29;1.43;;;1.33;;
6031;SDS011;3044;43.232;27.972;2023-04-02T14:49:00;4.17;;;1.23;;
6031;SDS011;3044;43.232;27.972;2023-04-02T14:51:33;1.80;;;1.27;;
6031;SDS011;3044;43.232;27.972;2023-04-02T14:54:07;1.73;;;0.93;;
6031;SDS011;3044;43.232;27.972;2023-04-02T14:56:42;1.00;;;0.90;;
6031;SDS011;3044;43.232;27.972;2023-04-02T14:59:20;1.23;;;1.13;;
6031;SDS011;3044;43.232;27.972;2023-04-02T15:01:55;1.43;;;1.10;;
6031;SDS011;3044;43.232;27.972;2023-04-02T15:04:26;1.40;;;1.30;;
6031;SDS011;3044;43.232;27.972;2023-04-02T15:07:00;4.00;;;1.17;;
6031;SDS011;3044;43.232;27.972;2023-04-02T15:09:31;2.53;;;1.57;;
6031;SDS011;3044;43.232;27.972;2023-04-02T15:12:05;1.40;;;1.10;;
6031;SDS011;3044;43.232;27.972;2023-04-02T15:14:37;1.40;;;0.80;;
6031;SDS011;3044;43.232;27.972;2023-04-02T15:17:08;2.13;;;1.60;;
6031;SDS011;3044;43.232;27.972;2023-04-02T15:19:36;1.20;;;1.10;;
6031;SDS011;3044;43.232;27.972;2023-04-02T15:22:06;1.90;;;1.50;;
6031;SDS011;3044;43.232;27.972;2023-04-02T15:24:51;1.20;;;1.10;;
6031;SDS011;3044;43.232;27.972;2023-04-02T15:27:33;2.03;;;1.60;;
6031;SDS011;3044;43.232;27.972;2023-04-02T15:30:11;1.60;;;1.43;;
6031;SDS011;3044;43.232;27.972;2023-04-02T15:32:40;1.93;;;1.40;;
6031;SDS011;3044;43.232;27.972;2023-04-02T15:35:13;2.00;;;0.97;;
6031;SDS011;3044;43.232;27.972;2023-04-02T15:37:55;3.73;;;1.40;;
6031;SDS011;3044;43.232;27.972;2023-04-02T15:40:28;1.20;;;1.00;;
6031;SDS011;3044;43.232;27.972;2023-04-02T15:43:13;4.50;;;1.30;;
6031;SDS011;3044;43.232;27.972;2023-04-02T15:45:47;1.60;;;1.40;;
6031;SDS011;3044;43.232;27.972;2023-04-02T15:48:33;2.40;;;1.67;;
6031;SDS011;3044;43.232;27.972;2023-04-02T15:51:38;5.30;;;1.73;;
6031;SDS011;3044;43.232;27.972;2023-04-02T15:54:18;2.07;;;1.80;;
6031;SDS011;3044;43.232;27.972;2023-04-02T15:56:58;11.20;;;2.90;;
6031;SDS011;3044;43.232;27.972;2023-04-02T15:59:46;1.80;;;1.70;;
6031;SDS011;3044;43.232;27.972;2023-04-02T16:02:31;3.10;;;2.10;;
6031;SDS011;3044;43.232;27.972;2023-04-02T16:05:13;2.07;;;1.57;;